WetterOnline ( https://www.wetteronline.at )

Wetter aktuell Hamburg

Aktuelles Wetter: Quickborn (17m)

6-stündlich | Neueste Meldungen
Ortszeit Temperatur Wetter
Mo, 16.09. 2:00 9.1° C bedeckt
So, 15.09. 20:00 14.0° C bewölkt
So, 15.09. 14:00 17.2° C bewölkt
So, 15.09. 8:00 11.2° C wolkig
So, 15.09. 2:00 8.5° C wolkig
Sa, 14.09. 20:00 11.7° C wolkig
Sa, 14.09. 14:00 15.9° C wolkenlos
Sa, 14.09. 8:00 5.9° C leicht bewölkt
Ortszeit Temperatur Wetter
Mo, 16.09. 2:30 10.0° C bedeckt
Mo, 16.09. 2:20 10.0° C bedeckt
Mo, 16.09. 2:10 9.2° C bedeckt
Mo, 16.09. 2:00 9.1° C bedeckt
Mo, 16.09. 1:40 9.2° C bedeckt
Mo, 16.09. 1:30 9.9° C bedeckt
Mo, 16.09. 1:00 10.4° C bedeckt
Mo, 16.09. 0:30 10.9° C bedeckt
Mo, 16.09. 0:00 11.5° C bedeckt
So, 15.09. 23:30 12.7° C bedeckt
Ortszeit Relative Feuchte Sichtweite
Mo, 16.09. 2:00 95% 16 km
So, 15.09. 20:00 83% 25 km
So, 15.09. 14:00 77% 30 km
So, 15.09. 8:00 72% 50 km
So, 15.09. 2:00 92% 24 km
Sa, 14.09. 20:00 86% 50 km
Sa, 14.09. 14:00 54% 60 km
Sa, 14.09. 8:00 99% 5.0 km
Ortszeit Relative Feuchte Sichtweite
Mo, 16.09. 2:30 93% 16 km
Mo, 16.09. 2:20 93% -
Mo, 16.09. 2:10 96% -
Mo, 16.09. 2:00 95% 16 km
Mo, 16.09. 1:40 95% -
Mo, 16.09. 1:30 95% 16 km
Mo, 16.09. 1:00 94% 17 km
Mo, 16.09. 0:30 91% 17 km
Mo, 16.09. 0:00 93% 16 km
So, 15.09. 23:30 88% 20 km
Ortszeit Niederschlagsmenge Niederschlagsart
Mo, 16.09. 2:00 0.0 l/m2 in 6 Std. -
So, 15.09. 20:00 1 l/m2 in 12 Std. Regen
So, 15.09. 14:00 0.0 l/m2 in 6 Std. -
So, 15.09. 8:00 0.0 l/m2 in 12 Std. -
So, 15.09. 2:00 0.0 l/m2 in 6 Std. -
Sa, 14.09. 20:00 0.0 l/m2 in 12 Std. -
Sa, 14.09. 14:00 0.0 l/m2 in 6 Std. -
Sa, 14.09. 8:00 0.0 l/m2 in 12 Std. -
Ortszeit Niederschlagsmenge Niederschlagsart
Mo, 16.09. 2:30 0.0 l/m2 in 1 Std. -
Mo, 16.09. 2:20 keine Meldung -
Mo, 16.09. 2:10 keine Meldung -
Mo, 16.09. 2:00 0.0 l/m2 in 1 Std. -
Mo, 16.09. 1:40 keine Meldung -
Mo, 16.09. 1:30 0.0 l/m2 in 1 Std. -
Mo, 16.09. 1:00 0.0 l/m2 in 1 Std. -
Mo, 16.09. 0:30 0.0 l/m2 in 1 Std. -
Mo, 16.09. 0:00 0.0 l/m2 in 1 Std. -
So, 15.09. 23:30 0.0 l/m2 in 1 Std. -
Ortszeit Stärke Spitze Richtung
km/h Bft. km/h Grad Sektor
Mo, 16.09. 2:00 4 1 22 230° SW
So, 15.09. 20:00 9 2 43 270° W
So, 15.09. 14:00 18 3 36 260° W
So, 15.09. 8:00 11 2 22 230° SW
So, 15.09. 2:00 6 1 9 170° S
Sa, 14.09. 20:00 4 1 22 320° NW
Sa, 14.09. 14:00 13 3 24 280° W
Sa, 14.09. 8:00 4 1 4 160° S
Ortszeit Stärke Spitze Richtung
km/h Bft. km/h Grad Sektor
Mo, 16.09. 2:30 7 2 13 230° SW
Mo, 16.09. 2:20 7 2 - 230° SW
Mo, 16.09. 2:10 4 1 - 240° SW
Mo, 16.09. 2:00 4 1 7 230° SW
Mo, 16.09. 1:40 4 1 - 210° SW
Mo, 16.09. 1:30 4 1 7 260° W
Mo, 16.09. 1:00 4 1 11 270° W
Mo, 16.09. 0:30 6 1 9 260° W
Mo, 16.09. 0:00 4 1 11 270° W
So, 15.09. 23:30 7 2 11 270° W
Ortszeit Untergrenze Bedeckung Gattung
total tief tief mittel hoch
Mo, 16.09. 2:00 60 m 8/8 8/8 - - -
So, 15.09. 20:00 60 m 8/8 7/8 - - -
So, 15.09. 14:00 540 m 7/8 7/8 - - -
So, 15.09. 8:00 9000 m 8/8 0/8 - - -
So, 15.09. 2:00 10500 m 8/8 0/8 - - -
Sa, 14.09. 20:00 9000 m 8/8 0/8 - - -
Sa, 14.09. 14:00 - 0/8 0/8 - - -
Sa, 14.09. 8:00 <30 m 3/8 0/8 - - -
Ortszeit Bedeckungsgrad in Achtel und Wolkenuntergrenze
Mo, 16.09. 2:30 8(60m) 8(3600m)
Mo, 16.09. 2:20 8(60m) 8(3600m)
Mo, 16.09. 2:10 8(60m)
Mo, 16.09. 2:00 8(60m)
Mo, 16.09. 1:40 8(60m) 8(990m)
Mo, 16.09. 1:30 8(60m) 8(990m)
Mo, 16.09. 1:00 8(60m)
Mo, 16.09. 0:30 8(60m)
Mo, 16.09. 0:00 8(60m) 8(780m) 8(1140m)
So, 15.09. 23:30 7(60m) 8(750m) 8(870m)
Ortszeit Luftdruck NN (hPa) Tendenz (hPa in 3 Std.)
Mo, 16.09. 2:00 1020 + 0,2
So, 15.09. 20:00 1019 + 0,5
So, 15.09. 14:00 1018 - 0,4
So, 15.09. 8:00 1020 - 2,1
So, 15.09. 2:00 1025 - 3,0
Sa, 14.09. 20:00 1030 - 1,3
Sa, 14.09. 14:00 1034 - 1,3
Sa, 14.09. 8:00 1035 0,0
Ortszeit Luftdruck NN (hPa) Tendenz (hPa in 3 Std.)
Mo, 16.09. 2:30 1020 0,0
Mo, 16.09. 2:20 1020 keine Meldung
Mo, 16.09. 2:10 1020 keine Meldung
Mo, 16.09. 2:00 1020 + 0,2
Mo, 16.09. 1:40 1020 keine Meldung
Mo, 16.09. 1:30 1020 + 0,6
Mo, 16.09. 1:00 1020 + 0,5
Mo, 16.09. 0:30 1020 + 0,7
Mo, 16.09. 0:00 1020 + 0,8
So, 15.09. 23:30 1020 + 0,6
Ortszeit Schneehöhe (cm)
Mo, 16.09. 2:00 -
So, 15.09. 20:00 -
So, 15.09. 14:00 -
So, 15.09. 8:00 -
So, 15.09. 2:00 -
Sa, 14.09. 20:00 -
Sa, 14.09. 14:00 -
Sa, 14.09. 8:00 -
Ortszeit Schneehöhe (cm)
Mo, 16.09. 2:30 -
Mo, 16.09. 2:20 -
Mo, 16.09. 2:10 -
Mo, 16.09. 2:00 -
Mo, 16.09. 1:40 -
Mo, 16.09. 1:30 -
Mo, 16.09. 1:00 -
Mo, 16.09. 0:30 -
Mo, 16.09. 0:00 -
So, 15.09. 23:30 -
Link zu dieser Seite / Seite empfehlen

Das Wetter in ...